Terminal Aerodrome Forecast
Issued by NWS

Home | Current Version | Previous Version | Text Only | Print | Product List | Glossary On
Versions: 1 2 3 4 5 6 7 8 9 10 11 12 13 14 15 16 17 18 19 20 21 22 23 24 25 26 27 28 29 30 31 32 33 34 35 36
000
FTUS46 KOTX 162331
TAFSFF
TAF
KSFF 162331Z 1700/1724 07003KT P6SM SCT060 BKN120
     FM171200 12004KT 6SM -FZRA OVC020
     FM171500 15004KT 4SM -RASN BR OVC015
     FM171900 16004KT 5SM -RA BR OVC010=

USA.gov is the U.S. government's official web portal to all federal, state and local government web resources and services.